sensor_id;sensor_type;location;lat;lon;timestamp;pressure;altitude;pressure_sealevel;temperature;humidity
42859;BME280;28505;56.970;40.998;2023-02-16T00:05:31;100931.69;;;-4.91;100.00
42859;BME280;28505;56.970;40.998;2023-02-16T00:11:20;100931.53;;;-4.98;100.00
42859;BME280;28505;56.970;40.998;2023-02-16T00:17:01;100931.41;;;-5.04;100.00
42859;BME280;28505;56.970;40.998;2023-02-16T00:22:24;100885.13;;;-5.46;100.00
42859;BME280;28505;56.970;40.998;2023-02-16T00:27:46;100936.34;;;-5.34;100.00
42859;BME280;28505;56.970;40.998;2023-02-16T00:33:19;100930.63;;;-5.37;100.00
42859;BME280;28505;56.970;40.998;2023-02-16T00:38:42;100935.03;;;-5.46;100.00
42859;BME280;28505;56.970;40.998;2023-02-16T00:44:10;100917.31;;;-5.69;100.00
42859;BME280;28505;56.970;40.998;2023-02-16T00:49:33;100917.63;;;-5.80;100.00
42859;BME280;28505;56.970;40.998;2023-02-16T00:54:57;100918.78;;;-5.91;100.00
42859;BME280;28505;56.970;40.998;2023-02-16T01:00:23;100923.06;;;-5.98;100.00
42859;BME280;28505;56.970;40.998;2023-02-16T01:05:46;100912.00;;;-6.34;100.00
42859;BME280;28505;56.970;40.998;2023-02-16T01:11:08;100933.88;;;-6.51;100.00
42859;BME280;28505;56.970;40.998;2023-02-16T01:16:39;100903.63;;;-6.80;100.00
42859;BME280;28505;56.970;40.998;2023-02-16T01:22:01;100912.53;;;-6.99;100.00
42859;BME280;28505;56.970;40.998;2023-02-16T01:27:24;100922.19;;;-7.25;100.00
42859;BME280;28505;56.970;40.998;2023-02-16T01:32:47;100939.25;;;-7.39;100.00
42859;BME280;28505;56.970;40.998;2023-02-16T01:38:21;100929.19;;;-7.70;100.00
42859;BME280;28505;56.970;40.998;2023-02-16T01:44:02;100932.94;;;-7.90;100.00
42859;BME280;28505;56.970;40.998;2023-02-16T01:49:25;100942.84;;;-8.12;100.00
42859;BME280;28505;56.970;40.998;2023-02-16T02:06:30;100963.94;;;-8.59;100.00
42859;BME280;28505;56.970;40.998;2023-02-16T02:12:05;100961.25;;;-8.86;100.00
42859;BME280;28505;56.970;40.998;2023-02-16T02:17:33;100980.41;;;-8.86;100.00
42859;BME280;28505;56.970;40.998;2023-02-16T02:29:14;100967.53;;;-9.26;100.00
42859;BME280;28505;56.970;40.998;2023-02-16T02:40:47;100990.09;;;-9.35;100.00
42859;BME280;28505;56.970;40.998;2023-02-16T02:46:24;100976.19;;;-9.55;100.00
42859;BME280;28505;56.970;40.998;2023-02-16T02:51:47;100992.16;;;-9.58;100.00
42859;BME280;28505;56.970;40.998;2023-02-16T02:57:35;100967.13;;;-9.90;100.00
42859;BME280;28505;56.970;40.998;2023-02-16T03:03:32;100948.94;;;-10.20;100.00
42859;BME280;28505;56.970;40.998;2023-02-16T03:09:07;100972.31;;;-10.09;100.00
42859;BME280;28505;56.970;40.998;2023-02-16T03:14:49;101001.41;;;-10.04;100.00
42859;BME280;28505;56.970;40.998;2023-02-16T03:20:14;100995.63;;;-10.17;100.00
42859;BME280;28505;56.970;40.998;2023-02-16T03:25:55;100959.09;;;-10.37;100.00
42859;BME280;28505;56.970;40.998;2023-02-16T03:31:37;100988.66;;;-10.26;100.00
42859;BME280;28505;56.970;40.998;2023-02-16T03:37:01;100983.00;;;-10.31;100.00
42859;BME280;28505;56.970;40.998;2023-02-16T03:42:24;100995.06;;;-10.21;100.00
42859;BME280;28505;56.970;40.998;2023-02-16T03:47:46;100967.63;;;-10.34;100.00
42859;BME280;28505;56.970;40.998;2023-02-16T03:53:08;100969.97;;;-10.31;100.00
42859;BME280;28505;56.970;40.998;2023-02-16T03:58:31;100978.84;;;-10.24;100.00
42859;BME280;28505;56.970;40.998;2023-02-16T04:03:54;100968.31;;;-10.32;100.00
42859;BME280;28505;56.970;40.998;2023-02-16T04:09:16;100991.09;;;-10.15;100.00
42859;BME280;28505;56.970;40.998;2023-02-16T04:14:38;100965.81;;;-10.34;100.00
42859;BME280;28505;56.970;40.998;2023-02-16T04:20:06;100996.50;;;-10.07;100.00
42859;BME280;28505;56.970;40.998;2023-02-16T04:25:31;100954.06;;;-10.09;100.00
42859;BME280;28505;56.970;40.998;2023-02-16T04:30:53;100978.09;;;-9.96;100.00
42859;BME280;28505;56.970;40.998;2023-02-16T04:36:16;100970.44;;;-9.97;100.00
42859;BME280;28505;56.970;40.998;2023-02-16T04:41:38;100975.38;;;-9.84;100.00
42859;BME280;28505;56.970;40.998;2023-02-16T04:47:00;100999.84;;;-9.66;100.00
42859;BME280;28505;56.970;40.998;2023-02-16T04:52:23;100986.94;;;-9.68;100.00
42859;BME280;28505;56.970;40.998;2023-02-16T04:57:45;100986.09;;;-9.58;100.00
42859;BME280;28505;56.970;40.998;2023-02-16T05:03:08;100997.78;;;-9.33;100.00
42859;BME280;28505;56.970;40.998;2023-02-16T05:08:30;101013.41;;;-9.04;100.00
42859;BME280;28505;56.970;40.998;2023-02-16T05:13:56;101015.56;;;-8.80;100.00
42859;BME280;28505;56.970;40.998;2023-02-16T05:19:36;101022.50;;;-8.52;100.00
42859;BME280;28505;56.970;40.998;2023-02-16T05:24:58;101021.97;;;-8.28;100.00
42859;BME280;28505;56.970;40.998;2023-02-16T05:30:20;101035.78;;;-8.08;100.00
42859;BME280;28505;56.970;40.998;2023-02-16T05:35:42;101016.47;;;-7.97;100.00
42859;BME280;28505;56.970;40.998;2023-02-16T05:41:04;101016.34;;;-7.78;100.00
42859;BME280;28505;56.970;40.998;2023-02-16T05:46:27;101023.53;;;-7.62;100.00
42859;BME280;28505;56.970;40.998;2023-02-16T05:51:50;101012.44;;;-7.56;100.00
42859;BME280;28505;56.970;40.998;2023-02-16T05:57:12;101031.03;;;-7.31;100.00
42859;BME280;28505;56.970;40.998;2023-02-16T06:02:34;101022.41;;;-7.23;100.00
42859;BME280;28505;56.970;40.998;2023-02-16T06:07:56;101027.69;;;-6.97;100.00
42859;BME280;28505;56.970;40.998;2023-02-16T06:13:19;101021.38;;;-6.61;100.00
42859;BME280;28505;56.970;40.998;2023-02-16T06:18:42;101015.75;;;-6.40;100.00
42859;BME280;28505;56.970;40.998;2023-02-16T06:24:06;101006.31;;;-6.24;100.00
42859;BME280;28505;56.970;40.998;2023-02-16T06:29:28;101024.28;;;-6.03;100.00
42859;BME280;28505;56.970;40.998;2023-02-16T06:34:50;101011.84;;;-5.85;100.00
42859;BME280;28505;56.970;40.998;2023-02-16T06:40:13;101008.75;;;-5.72;100.00
42859;BME280;28505;56.970;40.998;2023-02-16T06:45:35;101009.25;;;-5.60;100.00
42859;BME280;28505;56.970;40.998;2023-02-16T06:50:57;101016.16;;;-5.59;100.00
42859;BME280;28505;56.970;40.998;2023-02-16T06:56:19;101027.00;;;-5.46;100.00
42859;BME280;28505;56.970;40.998;2023-02-16T07:01:42;101010.13;;;-5.27;100.00
42859;BME280;28505;56.970;40.998;2023-02-16T07:07:05;101037.38;;;-5.04;100.00
42859;BME280;28505;56.970;40.998;2023-02-16T07:12:31;101032.63;;;-5.08;100.00
42859;BME280;28505;56.970;40.998;2023-02-16T07:17:53;101023.09;;;-4.93;100.00
42859;BME280;28505;56.970;40.998;2023-02-16T07:23:16;101029.66;;;-4.73;100.00
42859;BME280;28505;56.970;40.998;2023-02-16T07:28:37;101022.75;;;-4.82;100.00
42859;BME280;28505;56.970;40.998;2023-02-16T07:33:59;101023.09;;;-4.93;100.00
42859;BME280;28505;56.970;40.998;2023-02-16T07:39:21;101024.41;;;-5.13;100.00
42859;BME280;28505;56.970;40.998;2023-02-16T07:44:43;101026.06;;;-5.21;100.00
42859;BME280;28505;56.970;40.998;2023-02-16T07:50:06;101025.41;;;-5.23;100.00
42859;BME280;28505;56.970;40.998;2023-02-16T07:55:29;101020.16;;;-5.06;100.00
42859;BME280;28505;56.970;40.998;2023-02-16T08:00:54;101027.72;;;-5.03;100.00
42859;BME280;28505;56.970;40.998;2023-02-16T08:06:16;100998.28;;;-4.99;100.00
42859;BME280;28505;56.970;40.998;2023-02-16T08:11:39;101003.38;;;-4.89;100.00
42859;BME280;28505;56.970;40.998;2023-02-16T08:17:02;101012.75;;;-4.86;100.00
42859;BME280;28505;56.970;40.998;2023-02-16T08:22:25;100991.28;;;-4.59;100.00
42859;BME280;28505;56.970;40.998;2023-02-16T08:27:47;101000.19;;;-4.12;100.00
42859;BME280;28505;56.970;40.998;2023-02-16T08:33:11;101001.50;;;-4.08;100.00
42859;BME280;28505;56.970;40.998;2023-02-16T08:38:35;101010.03;;;-4.06;100.00
42859;BME280;28505;56.970;40.998;2023-02-16T08:43:58;101005.50;;;-3.89;100.00
42859;BME280;28505;56.970;40.998;2023-02-16T08:49:22;101003.50;;;-3.79;100.00
42859;BME280;28505;56.970;40.998;2023-02-16T08:54:44;100995.41;;;-3.78;100.00
42859;BME280;28505;56.970;40.998;2023-02-16T09:00:07;100973.16;;;-4.06;100.00
42859;BME280;28505;56.970;40.998;2023-02-16T09:05:51;101003.44;;;-3.71;100.00
42859;BME280;28505;56.970;40.998;2023-02-16T09:11:14;100975.03;;;-3.84;100.00
42859;BME280;28505;56.970;40.998;2023-02-16T09:16:38;101002.91;;;-3.66;100.00
42859;BME280;28505;56.970;40.998;2023-02-16T09:22:06;100994.25;;;-3.52;100.00
42859;BME280;28505;56.970;40.998;2023-02-16T09:27:30;100978.59;;;-3.54;100.00
42859;BME280;28505;56.970;40.998;2023-02-16T09:32:52;100999.53;;;-3.52;100.00
42859;BME280;28505;56.970;40.998;2023-02-16T09:38:15;101001.97;;;-3.50;100.00
42859;BME280;28505;56.970;40.998;2023-02-16T09:43:51;100985.13;;;-3.41;100.00
42859;BME280;28505;56.970;40.998;2023-02-16T09:54:53;100997.34;;;-3.25;100.00
42859;BME280;28505;56.970;40.998;2023-02-16T10:00:26;100989.03;;;-3.37;100.00
42859;BME280;28505;56.970;40.998;2023-02-16T10:11:48;100996.69;;;-3.27;100.00
42859;BME280;28505;56.970;40.998;2023-02-16T10:23:22;101001.03;;;-3.35;100.00
42859;BME280;28505;56.970;40.998;2023-02-16T10:28:52;100995.16;;;-3.37;100.00
42859;BME280;28505;56.970;40.998;2023-02-16T10:34:27;100976.50;;;-3.58;100.00
42859;BME280;28505;56.970;40.998;2023-02-16T10:45:48;100971.78;;;-3.63;100.00
42859;BME280;28505;56.970;40.998;2023-02-16T10:51:15;101000.22;;;-3.35;100.00
42859;BME280;28505;56.970;40.998;2023-02-16T11:02:23;100997.16;;;-3.24;100.00
42859;BME280;28505;56.970;40.998;2023-02-16T11:07:53;100959.34;;;-3.54;100.00
42859;BME280;28505;56.970;40.998;2023-02-16T11:24:36;100985.00;;;-3.48;100.00
42859;BME280;28505;56.970;40.998;2023-02-16T11:30:15;100974.75;;;-3.43;100.00
42859;BME280;28505;56.970;40.998;2023-02-16T11:35:45;100990.50;;;-3.35;100.00
42859;BME280;28505;56.970;40.998;2023-02-16T11:41:09;100961.97;;;-3.54;100.00
42859;BME280;28505;56.970;40.998;2023-02-16T11:46:38;100963.63;;;-3.76;100.00
42859;BME280;28505;56.970;40.998;2023-02-16T11:57:43;100971.13;;;-3.42;100.00
42859;BME280;28505;56.970;40.998;2023-02-16T12:03:20;100979.72;;;-3.25;100.00
42859;BME280;28505;56.970;40.998;2023-02-16T12:09:07;100970.66;;;-3.45;100.00
42859;BME280;28505;56.970;40.998;2023-02-16T12:14:42;100982.59;;;-3.35;100.00
42859;BME280;28505;56.970;40.998;2023-02-16T12:20:32;100997.47;;;-3.42;100.00
42859;BME280;28505;56.970;40.998;2023-02-16T12:37:19;101002.97;;;-3.74;100.00
42859;BME280;28505;56.970;40.998;2023-02-16T12:43:00;100998.38;;;-3.81;100.00
42859;BME280;28505;56.970;40.998;2023-02-16T12:54:16;100986.66;;;-4.09;100.00
42859;BME280;28505;56.970;40.998;2023-02-16T12:59:47;100991.66;;;-4.22;100.00
42859;BME280;28505;56.970;40.998;2023-02-16T13:05:31;100988.81;;;-4.52;100.00
42859;BME280;28505;56.970;40.998;2023-02-16T13:28:54;100985.63;;;-4.87;100.00
42859;BME280;28505;56.970;40.998;2023-02-16T13:34:45;101007.97;;;-4.83;100.00
42859;BME280;28505;56.970;40.998;2023-02-16T13:40:29;101009.78;;;-5.00;100.00
42859;BME280;28505;56.970;40.998;2023-02-16T13:45:58;100988.78;;;-5.32;100.00
42859;BME280;28505;56.970;40.998;2023-02-16T13:51:27;100991.56;;;-5.42;100.00
42859;BME280;28505;56.970;40.998;2023-02-16T13:56:52;100980.69;;;-5.63;100.00
42859;BME280;28505;56.970;40.998;2023-02-16T14:02:49;100998.72;;;-5.85;100.00
42859;BME280;28505;56.970;40.998;2023-02-16T14:13:46;100990.34;;;-6.39;100.00
42859;BME280;28505;56.970;40.998;2023-02-16T14:19:22;101000.84;;;-6.73;100.00
42859;BME280;28505;56.970;40.998;2023-02-16T14:24:52;101005.75;;;-6.96;100.00
42859;BME280;28505;56.970;40.998;2023-02-16T14:30:35;101013.88;;;-7.25;100.00
42859;BME280;28505;56.970;40.998;2023-02-16T14:36:15;101018.75;;;-7.48;100.00
42859;BME280;28505;56.970;40.998;2023-02-16T14:41:39;100997.84;;;-7.76;100.00
42859;BME280;28505;56.970;40.998;2023-02-16T15:04:28;100995.66;;;-7.98;100.00
42859;BME280;28505;56.970;40.998;2023-02-16T15:09:54;100995.88;;;-8.10;100.00
42859;BME280;28505;56.970;40.998;2023-02-16T15:15:51;101008.34;;;-8.31;100.00
42859;BME280;28505;56.970;40.998;2023-02-16T15:21:21;101012.06;;;-8.52;100.00
42859;BME280;28505;56.970;40.998;2023-02-16T15:26:53;100989.06;;;-8.85;100.00
42859;BME280;28505;56.970;40.998;2023-02-16T15:32:17;100986.59;;;-8.97;100.00
42859;BME280;28505;56.970;40.998;2023-02-16T15:37:39;100973.69;;;-9.08;100.00
42859;BME280;28505;56.970;40.998;2023-02-16T15:48:43;101009.81;;;-8.93;100.00
42859;BME280;28505;56.970;40.998;2023-02-16T15:54:22;100984.78;;;-8.96;100.00
42859;BME280;28505;56.970;40.998;2023-02-16T15:59:48;100976.81;;;-8.94;100.00
42859;BME280;28505;56.970;40.998;2023-02-16T16:05:26;101011.97;;;-8.69;100.00
42859;BME280;28505;56.970;40.998;2023-02-16T16:10:48;100972.28;;;-8.92;100.00
42859;BME280;28505;56.970;40.998;2023-02-16T16:16:13;100998.94;;;-8.79;100.00
42859;BME280;28505;56.970;40.998;2023-02-16T16:21:46;101006.53;;;-8.86;100.00
42859;BME280;28505;56.970;40.998;2023-02-16T16:27:10;100979.22;;;-9.21;100.00
42859;BME280;28505;56.970;40.998;2023-02-16T16:32:32;101011.38;;;-9.20;100.00
42859;BME280;28505;56.970;40.998;2023-02-16T16:37:57;100987.75;;;-9.48;100.00
42859;BME280;28505;56.970;40.998;2023-02-16T16:43:26;101017.84;;;-9.53;100.00
42859;BME280;28505;56.970;40.998;2023-02-16T16:48:51;101016.03;;;-9.72;100.00
42859;BME280;28505;56.970;40.998;2023-02-16T16:54:33;101007.38;;;-9.82;100.00
42859;BME280;28505;56.970;40.998;2023-02-16T17:00:00;100990.44;;;-9.98;100.00
42859;BME280;28505;56.970;40.998;2023-02-16T17:05:23;100978.47;;;-10.20;100.00
42859;BME280;28505;56.970;40.998;2023-02-16T17:10:47;100989.56;;;-10.37;100.00
42859;BME280;28505;56.970;40.998;2023-02-16T17:16:16;100980.94;;;-10.68;100.00
42859;BME280;28505;56.970;40.998;2023-02-16T17:21:43;100980.91;;;-10.78;100.00
42859;BME280;28505;56.970;40.998;2023-02-16T17:27:06;100979.28;;;-10.69;100.00
42859;BME280;28505;56.970;40.998;2023-02-16T17:32:35;100986.50;;;-10.52;100.00
42859;BME280;28505;56.970;40.998;2023-02-16T17:37:57;101010.97;;;-10.33;100.00
42859;BME280;28505;56.970;40.998;2023-02-16T17:43:20;101003.03;;;-10.32;100.00
42859;BME280;28505;56.970;40.998;2023-02-16T17:48:42;101001.09;;;-10.20;100.00
42859;BME280;28505;56.970;40.998;2023-02-16T17:54:10;100999.78;;;-10.05;100.00
42859;BME280;28505;56.970;40.998;2023-02-16T17:59:34;101006.09;;;-9.98;100.00
42859;BME280;28505;56.970;40.998;2023-02-16T18:05:01;101015.34;;;-9.84;100.00
42859;BME280;28505;56.970;40.998;2023-02-16T18:10:48;101037.03;;;-9.83;100.00
42859;BME280;28505;56.970;40.998;2023-02-16T18:16:16;101026.72;;;-9.85;100.00
42859;BME280;28505;56.970;40.998;2023-02-16T18:21:45;101027.56;;;-9.75;100.00
42859;BME280;28505;56.970;40.998;2023-02-16T18:27:09;101011.38;;;-9.69;100.00
42859;BME280;28505;56.970;40.998;2023-02-16T18:32:34;101012.75;;;-9.45;100.00
42859;BME280;28505;56.970;40.998;2023-02-16T18:37:57;101018.50;;;-9.22;100.00
42859;BME280;28505;56.970;40.998;2023-02-16T18:43:20;101025.38;;;-9.02;100.00
42859;BME280;28505;56.970;40.998;2023-02-16T18:48:42;101033.88;;;-8.90;100.00
42859;BME280;28505;56.970;40.998;2023-02-16T18:54:06;101027.28;;;-8.84;100.00
42859;BME280;28505;56.970;40.998;2023-02-16T18:59:28;101005.28;;;-8.91;100.00
42859;BME280;28505;56.970;40.998;2023-02-16T19:04:50;100990.72;;;-8.94;100.00
42859;BME280;28505;56.970;40.998;2023-02-16T19:10:12;100987.94;;;-8.83;100.00
42859;BME280;28505;56.970;40.998;2023-02-16T19:15:35;101005.53;;;-8.75;100.00
42859;BME280;28505;56.970;40.998;2023-02-16T19:20:57;100996.16;;;-8.78;100.00
42859;BME280;28505;56.970;40.998;2023-02-16T19:26:19;101015.66;;;-8.62;100.00
42859;BME280;28505;56.970;40.998;2023-02-16T19:31:41;101015.78;;;-8.54;100.00
42859;BME280;28505;56.970;40.998;2023-02-16T19:37:03;100998.72;;;-8.58;100.00
42859;BME280;28505;56.970;40.998;2023-02-16T19:42:27;101002.09;;;-8.38;100.00
42859;BME280;28505;56.970;40.998;2023-02-16T19:47:49;101006.72;;;-8.32;100.00
42859;BME280;28505;56.970;40.998;2023-02-16T19:53:12;100988.63;;;-8.43;100.00
42859;BME280;28505;56.970;40.998;2023-02-16T19:58:34;101005.59;;;-8.30;100.00
42859;BME280;28505;56.970;40.998;2023-02-16T20:03:56;100982.16;;;-8.39;100.00
42859;BME280;28505;56.970;40.998;2023-02-16T20:09:19;100965.38;;;-8.46;100.00
42859;BME280;28505;56.970;40.998;2023-02-16T20:14:42;100996.03;;;-8.21;100.00
42859;BME280;28505;56.970;40.998;2023-02-16T20:20:04;100961.34;;;-8.41;100.00
42859;BME280;28505;56.970;40.998;2023-02-16T20:25:26;100988.50;;;-8.24;100.00
42859;BME280;28505;56.970;40.998;2023-02-16T20:30:49;100989.88;;;-8.20;100.00
42859;BME280;28505;56.970;40.998;2023-02-16T20:36:11;100984.19;;;-8.15;100.00
42859;BME280;28505;56.970;40.998;2023-02-16T20:41:33;100985.41;;;-8.10;100.00
42859;BME280;28505;56.970;40.998;2023-02-16T20:46:55;100938.31;;;-8.37;100.00
42859;BME280;28505;56.970;40.998;2023-02-16T20:52:17;100965.75;;;-8.14;100.00
42859;BME280;28505;56.970;40.998;2023-02-16T20:57:40;100967.31;;;-8.03;100.00
42859;BME280;28505;56.970;40.998;2023-02-16T21:03:02;100967.69;;;-7.98;100.00
42859;BME280;28505;56.970;40.998;2023-02-16T21:08:24;100973.69;;;-7.88;100.00
42859;BME280;28505;56.970;40.998;2023-02-16T21:13:46;100971.38;;;-7.91;100.00
42859;BME280;28505;56.970;40.998;2023-02-16T21:19:08;100942.94;;;-8.04;100.00
42859;BME280;28505;56.970;40.998;2023-02-16T21:24:43;100950.88;;;-7.95;100.00
42859;BME280;28505;56.970;40.998;2023-02-16T21:30:05;100930.75;;;-7.95;100.00
42859;BME280;28505;56.970;40.998;2023-02-16T21:35:30;100943.78;;;-7.85;100.00
42859;BME280;28505;56.970;40.998;2023-02-16T21:40:52;100967.19;;;-7.66;100.00
42859;BME280;28505;56.970;40.998;2023-02-16T21:46:34;100960.38;;;-7.59;100.00
42859;BME280;28505;56.970;40.998;2023-02-16T21:51:57;100946.09;;;-7.64;100.00
42859;BME280;28505;56.970;40.998;2023-02-16T21:57:19;100932.78;;;-7.71;100.00
42859;BME280;28505;56.970;40.998;2023-02-16T22:02:41;100943.78;;;-7.67;100.00
42859;BME280;28505;56.970;40.998;2023-02-16T22:08:06;100965.31;;;-7.56;100.00
42859;BME280;28505;56.970;40.998;2023-02-16T22:13:30;100961.06;;;-7.57;100.00
42859;BME280;28505;56.970;40.998;2023-02-16T22:19:00;100964.34;;;-7.55;100.00
42859;BME280;28505;56.970;40.998;2023-02-16T22:24:22;100950.06;;;-7.60;100.00
42859;BME280;28505;56.970;40.998;2023-02-16T22:29:44;100958.66;;;-7.50;100.00
42859;BME280;28505;56.970;40.998;2023-02-16T22:35:06;100943.03;;;-7.60;100.00
42859;BME280;28505;56.970;40.998;2023-02-16T22:40:28;100933.53;;;-7.61;100.00
42859;BME280;28505;56.970;40.998;2023-02-16T22:45:50;100971.38;;;-7.37;100.00
42859;BME280;28505;56.970;40.998;2023-02-16T22:51:13;100960.28;;;-7.31;100.00
42859;BME280;28505;56.970;40.998;2023-02-16T22:56:36;100955.19;;;-7.33;100.00
42859;BME280;28505;56.970;40.998;2023-02-16T23:01:58;100955.88;;;-7.31;100.00
42859;BME280;28505;56.970;40.998;2023-02-16T23:07:20;100962.13;;;-7.23;100.00
42859;BME280;28505;56.970;40.998;2023-02-16T23:12:42;100962.75;;;-7.30;100.00
42859;BME280;28505;56.970;40.998;2023-02-16T23:18:04;100948.88;;;-7.48;100.00
42859;BME280;28505;56.970;40.998;2023-02-16T23:23:26;100964.34;;;-7.55;100.00
42859;BME280;28505;56.970;40.998;2023-02-16T23:28:52;100968.06;;;-7.75;100.00
42859;BME280;28505;56.970;40.998;2023-02-16T23:34:15;100962.31;;;-7.96;100.00
42859;BME280;28505;56.970;40.998;2023-02-16T23:39:37;100960.41;;;-8.22;100.00
42859;BME280;28505;56.970;40.998;2023-02-16T23:45:03;100967.56;;;-8.42;100.00
42859;BME280;28505;56.970;40.998;2023-02-16T23:50:25;100963.44;;;-8.72;100.00
42859;BME280;28505;56.970;40.998;2023-02-16T23:56:39;100975.44;;;-8.89;100.00
